Terminal Aerodrome Forecast
Issued by NWS

Home | Current Version | Previous Version | Text Only | Print | Product List | Glossary On
Versions: 1 2 3 4 5 6 7 8 9 10 11 12
000
FTAK31 PANC 190523
TAFATK
TAF
PATK 190523Z 1906/2006 36003KT P6SM OVC012
      TEMPO 1906/1909 OVC008
     FM190900 01002KT P6SM OVC008
     FM191800 02003KT P6SM BKN015
     FM192000 36003KT P6SM FEW015 BKN030=

USA.gov is the U.S. government's official web portal to all federal, state and local government web resources and services.